sensor_id;sensor_type;location;lat;lon;timestamp;P1;durP1;ratioP1;P2;durP2;ratioP2
9166;SDS011;4618;48.818;9.088;2023-02-20T00:01:51;5.53;;;3.03;;
9166;SDS011;4618;48.818;9.088;2023-02-20T00:04:18;6.03;;;2.93;;
9166;SDS011;4618;48.818;9.088;2023-02-20T00:06:44;5.70;;;3.03;;
9166;SDS011;4618;48.818;9.088;2023-02-20T00:09:10;5.73;;;3.00;;
9166;SDS011;4618;48.818;9.088;2023-02-20T00:11:36;7.67;;;3.30;;
9166;SDS011;4618;48.818;9.088;2023-02-20T00:14:02;6.63;;;3.23;;
9166;SDS011;4618;48.818;9.088;2023-02-20T00:16:27;4.27;;;3.20;;
9166;SDS011;4618;48.818;9.088;2023-02-20T00:18:53;8.27;;;3.43;;
9166;SDS011;4618;48.818;9.088;2023-02-20T00:21:19;7.00;;;3.43;;
9166;SDS011;4618;48.818;9.088;2023-02-20T00:23:44;5.80;;;3.27;;
9166;SDS011;4618;48.818;9.088;2023-02-20T00:26:10;5.20;;;3.00;;
9166;SDS011;4618;48.818;9.088;2023-02-20T00:28:40;5.77;;;3.07;;
9166;SDS011;4618;48.818;9.088;2023-02-20T00:31:10;7.87;;;3.30;;
9166;SDS011;4618;48.818;9.088;2023-02-20T00:33:38;6.57;;;3.00;;
9166;SDS011;4618;48.818;9.088;2023-02-20T00:36:04;4.33;;;3.20;;
9166;SDS011;4618;48.818;9.088;2023-02-20T00:38:30;5.73;;;3.13;;
9166;SDS011;4618;48.818;9.088;2023-02-20T00:40:56;7.30;;;3.57;;
9166;SDS011;4618;48.818;9.088;2023-02-20T00:43:21;6.37;;;3.33;;
9166;SDS011;4618;48.818;9.088;2023-02-20T00:45:47;5.43;;;3.40;;
9166;SDS011;4618;48.818;9.088;2023-02-20T00:48:12;8.37;;;3.50;;
9166;SDS011;4618;48.818;9.088;2023-02-20T00:50:38;7.93;;;3.50;;
9166;SDS011;4618;48.818;9.088;2023-02-20T00:53:03;5.07;;;3.10;;
9166;SDS011;4618;48.818;9.088;2023-02-20T00:55:29;7.43;;;3.33;;
9166;SDS011;4618;48.818;9.088;2023-02-20T00:57:55;6.73;;;3.67;;
9166;SDS011;4618;48.818;9.088;2023-02-20T01:00:22;9.40;;;3.13;;
9166;SDS011;4618;48.818;9.088;2023-02-20T01:02:50;6.10;;;3.17;;
9166;SDS011;4618;48.818;9.088;2023-02-20T01:05:16;5.90;;;2.90;;
9166;SDS011;4618;48.818;9.088;2023-02-20T01:07:41;3.93;;;3.17;;
9166;SDS011;4618;48.818;9.088;2023-02-20T01:10:08;3.73;;;3.03;;
9166;SDS011;4618;48.818;9.088;2023-02-20T01:12:34;8.07;;;3.70;;
9166;SDS011;4618;48.818;9.088;2023-02-20T01:15:00;4.80;;;3.10;;
9166;SDS011;4618;48.818;9.088;2023-02-20T01:17:25;7.07;;;3.60;;
9166;SDS011;4618;48.818;9.088;2023-02-20T01:19:51;7.63;;;3.70;;
9166;SDS011;4618;48.818;9.088;2023-02-20T01:22:16;4.90;;;3.07;;
9166;SDS011;4618;48.818;9.088;2023-02-20T01:24:42;9.83;;;3.77;;
9166;SDS011;4618;48.818;9.088;2023-02-20T01:27:08;6.43;;;3.50;;
9166;SDS011;4618;48.818;9.088;2023-02-20T01:29:34;4.97;;;3.63;;
9166;SDS011;4618;48.818;9.088;2023-02-20T01:31:59;5.37;;;3.20;;
9166;SDS011;4618;48.818;9.088;2023-02-20T01:34:25;6.63;;;3.43;;
9166;SDS011;4618;48.818;9.088;2023-02-20T01:36:52;4.23;;;3.20;;
9166;SDS011;4618;48.818;9.088;2023-02-20T01:39:20;7.53;;;3.23;;
9166;SDS011;4618;48.818;9.088;2023-02-20T01:41:48;5.63;;;3.10;;
9166;SDS011;4618;48.818;9.088;2023-02-20T01:44:22;7.47;;;3.00;;
9166;SDS011;4618;48.818;9.088;2023-02-20T01:46:50;8.27;;;3.10;;
9166;SDS011;4618;48.818;9.088;2023-02-20T01:49:23;4.93;;;3.07;;
9166;SDS011;4618;48.818;9.088;2023-02-20T01:54:56;5.93;;;3.67;;
9166;SDS011;4618;48.818;9.088;2023-02-20T01:57:25;6.20;;;2.87;;
9166;SDS011;4618;48.818;9.088;2023-02-20T01:59:56;6.57;;;3.10;;
9166;SDS011;4618;48.818;9.088;2023-02-20T02:02:27;4.57;;;2.93;;
9166;SDS011;4618;48.818;9.088;2023-02-20T02:04:56;6.57;;;3.50;;
9166;SDS011;4618;48.818;9.088;2023-02-20T02:07:22;9.13;;;3.47;;
9166;SDS011;4618;48.818;9.088;2023-02-20T02:12:31;6.57;;;3.30;;
9166;SDS011;4618;48.818;9.088;2023-02-20T02:14:57;7.23;;;3.40;;
9166;SDS011;4618;48.818;9.088;2023-02-20T02:17:47;8.40;;;3.43;;
9166;SDS011;4618;48.818;9.088;2023-02-20T02:23:30;7.93;;;3.47;;
9166;SDS011;4618;48.818;9.088;2023-02-20T02:29:04;6.30;;;3.47;;
9166;SDS011;4618;48.818;9.088;2023-02-20T02:31:55;6.13;;;3.00;;
9166;SDS011;4618;48.818;9.088;2023-02-20T02:37:24;6.57;;;3.03;;
9166;SDS011;4618;48.818;9.088;2023-02-20T02:40:00;6.63;;;3.30;;
9166;SDS011;4618;48.818;9.088;2023-02-20T02:42:41;4.87;;;2.83;;
9166;SDS011;4618;48.818;9.088;2023-02-20T02:45:42;7.33;;;3.30;;
9166;SDS011;4618;48.818;9.088;2023-02-20T02:51:20;6.03;;;3.17;;
9166;SDS011;4618;48.818;9.088;2023-02-20T02:54:06;6.17;;;3.17;;
9166;SDS011;4618;48.818;9.088;2023-02-20T02:56:44;7.17;;;3.30;;
9166;SDS011;4618;48.818;9.088;2023-02-20T02:59:13;5.50;;;3.10;;
9166;SDS011;4618;48.818;9.088;2023-02-20T03:01:45;5.53;;;3.30;;
9166;SDS011;4618;48.818;9.088;2023-02-20T03:04:14;4.77;;;2.83;;
9166;SDS011;4618;48.818;9.088;2023-02-20T03:06:47;6.90;;;2.70;;
9166;SDS011;4618;48.818;9.088;2023-02-20T03:09:19;5.50;;;3.00;;
9166;SDS011;4618;48.818;9.088;2023-02-20T03:11:53;3.77;;;3.10;;
9166;SDS011;4618;48.818;9.088;2023-02-20T03:14:21;6.40;;;3.07;;
9166;SDS011;4618;48.818;9.088;2023-02-20T03:19:43;5.50;;;2.80;;
9166;SDS011;4618;48.818;9.088;2023-02-20T03:22:13;5.60;;;2.73;;
9166;SDS011;4618;48.818;9.088;2023-02-20T03:24:44;4.13;;;2.80;;
9166;SDS011;4618;48.818;9.088;2023-02-20T03:28:06;3.20;;;2.10;;
9166;SDS011;4618;48.818;9.088;2023-02-20T03:30:17;6.07;;;2.70;;
9166;SDS011;4618;48.818;9.088;2023-02-20T03:33:06;6.70;;;2.90;;
9166;SDS011;4618;48.818;9.088;2023-02-20T03:35:54;5.40;;;2.60;;
9166;SDS011;4618;48.818;9.088;2023-02-20T03:38:40;4.67;;;2.80;;
9166;SDS011;4618;48.818;9.088;2023-02-20T03:41:26;3.40;;;2.60;;
9166;SDS011;4618;48.818;9.088;2023-02-20T03:44:13;6.40;;;2.67;;
9166;SDS011;4618;48.818;9.088;2023-02-20T03:46:41;4.63;;;2.57;;
9166;SDS011;4618;48.818;9.088;2023-02-20T03:49:10;8.70;;;2.80;;
9166;SDS011;4618;48.818;9.088;2023-02-20T03:51:38;5.17;;;2.90;;
9166;SDS011;4618;48.818;9.088;2023-02-20T03:54:24;6.80;;;2.77;;
9166;SDS011;4618;48.818;9.088;2023-02-20T03:56:55;5.73;;;2.60;;
9166;SDS011;4618;48.818;9.088;2023-02-20T03:59:35;5.73;;;2.90;;
9166;SDS011;4618;48.818;9.088;2023-02-20T04:02:08;6.23;;;2.73;;
9166;SDS011;4618;48.818;9.088;2023-02-20T04:04:41;5.57;;;2.97;;
9166;SDS011;4618;48.818;9.088;2023-02-20T04:07:11;5.83;;;2.37;;
9166;SDS011;4618;48.818;9.088;2023-02-20T04:09:59;7.70;;;2.60;;
9166;SDS011;4618;48.818;9.088;2023-02-20T04:12:29;7.10;;;2.70;;
9166;SDS011;4618;48.818;9.088;2023-02-20T04:14:59;6.43;;;2.80;;
9166;SDS011;4618;48.818;9.088;2023-02-20T04:17:28;6.47;;;2.40;;
9166;SDS011;4618;48.818;9.088;2023-02-20T04:19:56;6.00;;;2.67;;
9166;SDS011;4618;48.818;9.088;2023-02-20T04:22:26;3.83;;;2.80;;
9166;SDS011;4618;48.818;9.088;2023-02-20T04:25:05;8.13;;;2.70;;
9166;SDS011;4618;48.818;9.088;2023-02-20T04:27:36;7.97;;;3.43;;
9166;SDS011;4618;48.818;9.088;2023-02-20T04:30:02;5.10;;;2.93;;
9166;SDS011;4618;48.818;9.088;2023-02-20T04:32:28;6.27;;;3.27;;
9166;SDS011;4618;48.818;9.088;2023-02-20T04:34:54;8.43;;;3.13;;
9166;SDS011;4618;48.818;9.088;2023-02-20T04:37:20;4.50;;;3.10;;
9166;SDS011;4618;48.818;9.088;2023-02-20T04:39:45;5.80;;;3.00;;
9166;SDS011;4618;48.818;9.088;2023-02-20T04:42:11;6.70;;;3.60;;
9166;SDS011;4618;48.818;9.088;2023-02-20T04:44:37;5.60;;;3.10;;
9166;SDS011;4618;48.818;9.088;2023-02-20T04:47:05;10.63;;;3.73;;
9166;SDS011;4618;48.818;9.088;2023-02-20T04:49:32;5.50;;;3.30;;
9166;SDS011;4618;48.818;9.088;2023-02-20T04:51:58;5.33;;;3.07;;
9166;SDS011;4618;48.818;9.088;2023-02-20T04:54:24;3.17;;;2.83;;
9166;SDS011;4618;48.818;9.088;2023-02-20T04:56:50;6.93;;;3.10;;
9166;SDS011;4618;48.818;9.088;2023-02-20T04:59:16;4.10;;;2.77;;
9166;SDS011;4618;48.818;9.088;2023-02-20T05:01:42;6.17;;;3.50;;
9166;SDS011;4618;48.818;9.088;2023-02-20T05:04:12;6.53;;;3.50;;
9166;SDS011;4618;48.818;9.088;2023-02-20T05:06:42;5.53;;;2.80;;
9166;SDS011;4618;48.818;9.088;2023-02-20T05:09:09;6.10;;;3.50;;
9166;SDS011;4618;48.818;9.088;2023-02-20T05:11:35;4.83;;;3.20;;
9166;SDS011;4618;48.818;9.088;2023-02-20T05:14:02;4.80;;;3.10;;
9166;SDS011;4618;48.818;9.088;2023-02-20T05:16:28;6.50;;;3.53;;
9166;SDS011;4618;48.818;9.088;2023-02-20T05:18:54;5.20;;;3.10;;
9166;SDS011;4618;48.818;9.088;2023-02-20T05:21:19;7.77;;;3.70;;
9166;SDS011;4618;48.818;9.088;2023-02-20T05:24:04;7.30;;;3.53;;
9166;SDS011;4618;48.818;9.088;2023-02-20T05:26:30;4.63;;;3.40;;
9166;SDS011;4618;48.818;9.088;2023-02-20T05:28:56;4.97;;;3.57;;
9166;SDS011;4618;48.818;9.088;2023-02-20T05:31:22;8.50;;;3.93;;
9166;SDS011;4618;48.818;9.088;2023-02-20T05:33:47;7.37;;;3.23;;
9166;SDS011;4618;48.818;9.088;2023-02-20T05:36:13;6.63;;;3.23;;
9166;SDS011;4618;48.818;9.088;2023-02-20T05:38:39;5.47;;;3.47;;
9166;SDS011;4618;48.818;9.088;2023-02-20T05:41:07;6.40;;;3.33;;
9166;SDS011;4618;48.818;9.088;2023-02-20T05:43:33;4.97;;;3.77;;
9166;SDS011;4618;48.818;9.088;2023-02-20T05:45:58;6.20;;;3.23;;
9166;SDS011;4618;48.818;9.088;2023-02-20T05:48:24;6.63;;;3.53;;
9166;SDS011;4618;48.818;9.088;2023-02-20T05:50:49;5.50;;;3.67;;
9166;SDS011;4618;48.818;9.088;2023-02-20T05:53:15;8.70;;;4.03;;
9166;SDS011;4618;48.818;9.088;2023-02-20T05:55:41;7.47;;;3.50;;
9166;SDS011;4618;48.818;9.088;2023-02-20T05:58:06;6.93;;;3.90;;
9166;SDS011;4618;48.818;9.088;2023-02-20T06:00:32;7.00;;;3.90;;
9166;SDS011;4618;48.818;9.088;2023-02-20T06:02:58;10.87;;;3.60;;
9166;SDS011;4618;48.818;9.088;2023-02-20T06:05:23;8.07;;;4.43;;
9166;SDS011;4618;48.818;9.088;2023-02-20T06:07:50;9.13;;;4.00;;
9166;SDS011;4618;48.818;9.088;2023-02-20T06:10:17;8.50;;;4.33;;
9166;SDS011;4618;48.818;9.088;2023-02-20T06:12:43;9.10;;;4.10;;
9166;SDS011;4618;48.818;9.088;2023-02-20T06:15:10;9.33;;;4.00;;
9166;SDS011;4618;48.818;9.088;2023-02-20T06:17:36;8.60;;;4.23;;
9166;SDS011;4618;48.818;9.088;2023-02-20T06:20:01;6.37;;;4.10;;
9166;SDS011;4618;48.818;9.088;2023-02-20T06:22:27;9.70;;;4.80;;
9166;SDS011;4618;48.818;9.088;2023-02-20T06:24:53;7.30;;;4.13;;
9166;SDS011;4618;48.818;9.088;2023-02-20T06:27:18;6.53;;;3.73;;
9166;SDS011;4618;48.818;9.088;2023-02-20T06:29:47;8.07;;;3.93;;
9166;SDS011;4618;48.818;9.088;2023-02-20T06:32:12;8.53;;;4.13;;
9166;SDS011;4618;48.818;9.088;2023-02-20T06:34:38;8.73;;;4.20;;
9166;SDS011;4618;48.818;9.088;2023-02-20T06:37:04;7.97;;;4.10;;
9166;SDS011;4618;48.818;9.088;2023-02-20T06:39:30;13.53;;;4.20;;
9166;SDS011;4618;48.818;9.088;2023-02-20T06:41:56;7.40;;;3.57;;
9166;SDS011;4618;48.818;9.088;2023-02-20T06:44:22;5.57;;;3.73;;
9166;SDS011;4618;48.818;9.088;2023-02-20T06:46:48;8.63;;;4.43;;
9166;SDS011;4618;48.818;9.088;2023-02-20T06:49:13;9.17;;;3.97;;
9166;SDS011;4618;48.818;9.088;2023-02-20T06:51:39;7.00;;;3.83;;
9166;SDS011;4618;48.818;9.088;2023-02-20T06:54:05;8.30;;;3.77;;
9166;SDS011;4618;48.818;9.088;2023-02-20T06:56:32;6.17;;;3.67;;
9166;SDS011;4618;48.818;9.088;2023-02-20T06:58:59;5.97;;;4.00;;
9166;SDS011;4618;48.818;9.088;2023-02-20T07:01:27;6.33;;;3.83;;
9166;SDS011;4618;48.818;9.088;2023-02-20T07:03:55;7.67;;;3.97;;
9166;SDS011;4618;48.818;9.088;2023-02-20T07:06:22;9.03;;;4.10;;
9166;SDS011;4618;48.818;9.088;2023-02-20T07:08:49;7.80;;;4.17;;
9166;SDS011;4618;48.818;9.088;2023-02-20T07:11:16;8.77;;;4.13;;
9166;SDS011;4618;48.818;9.088;2023-02-20T07:13:43;8.50;;;4.17;;
9166;SDS011;4618;48.818;9.088;2023-02-20T07:16:09;4.77;;;4.00;;
9166;SDS011;4618;48.818;9.088;2023-02-20T07:18:34;7.97;;;4.23;;
9166;SDS011;4618;48.818;9.088;2023-02-20T07:21:00;7.00;;;3.90;;
9166;SDS011;4618;48.818;9.088;2023-02-20T07:23:26;9.77;;;4.10;;
9166;SDS011;4618;48.818;9.088;2023-02-20T07:25:52;8.83;;;4.37;;
9166;SDS011;4618;48.818;9.088;2023-02-20T07:28:18;7.80;;;3.97;;
9166;SDS011;4618;48.818;9.088;2023-02-20T07:30:45;9.93;;;4.37;;
9166;SDS011;4618;48.818;9.088;2023-02-20T07:33:13;9.23;;;3.90;;
9166;SDS011;4618;48.818;9.088;2023-02-20T07:35:38;7.73;;;3.87;;
9166;SDS011;4618;48.818;9.088;2023-02-20T07:38:04;5.73;;;3.37;;
9166;SDS011;4618;48.818;9.088;2023-02-20T07:40:30;7.47;;;3.90;;
9166;SDS011;4618;48.818;9.088;2023-02-20T07:42:55;7.47;;;3.83;;
9166;SDS011;4618;48.818;9.088;2023-02-20T07:45:21;5.87;;;3.60;;
9166;SDS011;4618;48.818;9.088;2023-02-20T07:47:47;7.37;;;3.47;;
9166;SDS011;4618;48.818;9.088;2023-02-20T07:50:13;6.87;;;3.60;;
9166;SDS011;4618;48.818;9.088;2023-02-20T07:52:39;5.93;;;3.73;;
9166;SDS011;4618;48.818;9.088;2023-02-20T07:55:05;7.20;;;3.50;;
9166;SDS011;4618;48.818;9.088;2023-02-20T07:57:31;6.10;;;3.60;;
9166;SDS011;4618;48.818;9.088;2023-02-20T08:00:00;4.90;;;3.40;;
9166;SDS011;4618;48.818;9.088;2023-02-20T08:02:25;8.50;;;3.37;;
9166;SDS011;4618;48.818;9.088;2023-02-20T08:04:51;5.93;;;3.20;;
9166;SDS011;4618;48.818;9.088;2023-02-20T08:07:16;7.93;;;3.50;;
9166;SDS011;4618;48.818;9.088;2023-02-20T08:09:42;7.57;;;3.40;;
9166;SDS011;4618;48.818;9.088;2023-02-20T08:12:10;8.93;;;3.50;;
9166;SDS011;4618;48.818;9.088;2023-02-20T08:14:35;7.27;;;3.70;;
9166;SDS011;4618;48.818;9.088;2023-02-20T08:17:01;5.93;;;2.80;;
9166;SDS011;4618;48.818;9.088;2023-02-20T08:19:26;7.90;;;3.47;;
9166;SDS011;4618;48.818;9.088;2023-02-20T08:21:52;5.37;;;2.97;;
9166;SDS011;4618;48.818;9.088;2023-02-20T08:24:17;4.37;;;3.10;;
9166;SDS011;4618;48.818;9.088;2023-02-20T08:26:43;6.23;;;2.97;;
9166;SDS011;4618;48.818;9.088;2023-02-20T08:29:10;8.17;;;3.03;;
9166;SDS011;4618;48.818;9.088;2023-02-20T08:31:36;8.63;;;3.37;;
9166;SDS011;4618;48.818;9.088;2023-02-20T08:34:01;6.03;;;2.87;;
9166;SDS011;4618;48.818;9.088;2023-02-20T08:36:27;7.37;;;3.13;;
9166;SDS011;4618;48.818;9.088;2023-02-20T08:38:53;5.27;;;2.83;;
9166;SDS011;4618;48.818;9.088;2023-02-20T08:41:18;5.93;;;3.03;;
9166;SDS011;4618;48.818;9.088;2023-02-20T08:43:44;5.67;;;2.70;;
9166;SDS011;4618;48.818;9.088;2023-02-20T08:46:10;10.40;;;3.30;;
9166;SDS011;4618;48.818;9.088;2023-02-20T08:48:36;7.53;;;2.70;;
9166;SDS011;4618;48.818;9.088;2023-02-20T08:51:03;3.87;;;2.50;;
9166;SDS011;4618;48.818;9.088;2023-02-20T08:53:29;5.00;;;2.47;;
9166;SDS011;4618;48.818;9.088;2023-02-20T08:55:55;6.80;;;2.20;;
9166;SDS011;4618;48.818;9.088;2023-02-20T08:58:21;6.70;;;2.50;;
9166;SDS011;4618;48.818;9.088;2023-02-20T09:00:48;6.60;;;2.50;;
9166;SDS011;4618;48.818;9.088;2023-02-20T09:03:14;3.37;;;1.97;;
9166;SDS011;4618;48.818;9.088;2023-02-20T09:05:40;3.73;;;2.00;;
9166;SDS011;4618;48.818;9.088;2023-02-20T09:08:07;4.83;;;2.00;;
9166;SDS011;4618;48.818;9.088;2023-02-20T09:10:32;3.53;;;2.17;;
9166;SDS011;4618;48.818;9.088;2023-02-20T09:12:58;4.27;;;1.80;;
9166;SDS011;4618;48.818;9.088;2023-02-20T09:15:24;3.50;;;1.87;;
9166;SDS011;4618;48.818;9.088;2023-02-20T09:17:50;3.53;;;1.50;;
9166;SDS011;4618;48.818;9.088;2023-02-20T09:20:17;3.23;;;1.63;;
9166;SDS011;4618;48.818;9.088;2023-02-20T09:22:48;2.90;;;1.60;;
9166;SDS011;4618;48.818;9.088;2023-02-20T09:25:15;2.70;;;1.70;;
9166;SDS011;4618;48.818;9.088;2023-02-20T09:27:41;3.10;;;1.80;;
9166;SDS011;4618;48.818;9.088;2023-02-20T09:30:07;5.43;;;1.80;;
9166;SDS011;4618;48.818;9.088;2023-02-20T09:32:33;5.20;;;1.83;;
9166;SDS011;4618;48.818;9.088;2023-02-20T09:34:58;2.13;;;1.40;;
9166;SDS011;4618;48.818;9.088;2023-02-20T09:37:24;3.87;;;2.00;;
9166;SDS011;4618;48.818;9.088;2023-02-20T09:39:50;4.10;;;1.77;;
9166;SDS011;4618;48.818;9.088;2023-02-20T09:45:14;4.70;;;1.67;;
9166;SDS011;4618;48.818;9.088;2023-02-20T09:50:42;4.27;;;1.83;;
9166;SDS011;4618;48.818;9.088;2023-02-20T09:53:16;4.03;;;1.70;;
9166;SDS011;4618;48.818;9.088;2023-02-20T09:55:45;5.40;;;2.03;;
9166;SDS011;4618;48.818;9.088;2023-02-20T09:58:17;4.53;;;1.60;;
9166;SDS011;4618;48.818;9.088;2023-02-20T10:00:47;4.53;;;1.80;;
9166;SDS011;4618;48.818;9.088;2023-02-20T10:05:46;5.63;;;2.10;;
9166;SDS011;4618;48.818;9.088;2023-02-20T10:08:14;3.57;;;1.87;;
9166;SDS011;4618;48.818;9.088;2023-02-20T10:10:43;4.17;;;1.87;;
9166;SDS011;4618;48.818;9.088;2023-02-20T10:21:46;7.50;;;2.23;;
9166;SDS011;4618;48.818;9.088;2023-02-20T10:30:11;4.50;;;1.30;;
9166;SDS011;4618;48.818;9.088;2023-02-20T10:32:42;2.70;;;1.33;;
9166;SDS011;4618;48.818;9.088;2023-02-20T10:35:37;3.50;;;1.37;;
9166;SDS011;4618;48.818;9.088;2023-02-20T10:38:17;4.20;;;1.80;;
9166;SDS011;4618;48.818;9.088;2023-02-20T10:40:56;3.67;;;1.60;;
9166;SDS011;4618;48.818;9.088;2023-02-20T10:43:42;2.43;;;1.20;;
9166;SDS011;4618;48.818;9.088;2023-02-20T10:46:15;3.70;;;1.60;;
9166;SDS011;4618;48.818;9.088;2023-02-20T10:48:47;2.70;;;1.40;;
9166;SDS011;4618;48.818;9.088;2023-02-20T10:51:26;4.37;;;1.60;;
9166;SDS011;4618;48.818;9.088;2023-02-20T10:53:58;2.10;;;1.27;;
9166;SDS011;4618;48.818;9.088;2023-02-20T10:56:31;3.77;;;1.33;;
9166;SDS011;4618;48.818;9.088;2023-02-20T10:59:12;2.80;;;1.30;;
9166;SDS011;4618;48.818;9.088;2023-02-20T11:01:59;4.13;;;1.50;;
9166;SDS011;4618;48.818;9.088;2023-02-20T11:04:35;2.67;;;1.43;;
9166;SDS011;4618;48.818;9.088;2023-02-20T11:07:09;2.03;;;1.10;;
9166;SDS011;4618;48.818;9.088;2023-02-20T11:09:39;3.07;;;1.40;;
9166;SDS011;4618;48.818;9.088;2023-02-20T11:12:05;2.97;;;1.00;;
9166;SDS011;4618;48.818;9.088;2023-02-20T11:17:04;3.93;;;1.33;;
9166;SDS011;4618;48.818;9.088;2023-02-20T11:19:50;2.93;;;1.40;;
9166;SDS011;4618;48.818;9.088;2023-02-20T11:25:26;3.13;;;1.27;;
9166;SDS011;4618;48.818;9.088;2023-02-20T11:27:53;1.90;;;1.10;;
9166;SDS011;4618;48.818;9.088;2023-02-20T11:30:28;2.80;;;1.23;;
9166;SDS011;4618;48.818;9.088;2023-02-20T11:32:58;3.70;;;1.27;;
9166;SDS011;4618;48.818;9.088;2023-02-20T11:35:45;4.97;;;1.47;;
9166;SDS011;4618;48.818;9.088;2023-02-20T11:40:44;1.63;;;1.07;;
9166;SDS011;4618;48.818;9.088;2023-02-20T11:45:45;5.43;;;1.30;;
9166;SDS011;4618;48.818;9.088;2023-02-20T11:48:12;1.77;;;1.40;;
9166;SDS011;4618;48.818;9.088;2023-02-20T11:50:39;2.40;;;1.30;;
9166;SDS011;4618;48.818;9.088;2023-02-20T11:53:25;2.25;;;1.02;;
9166;SDS011;4618;48.818;9.088;2023-02-20T11:56:12;3.30;;;1.33;;
9166;SDS011;4618;48.818;9.088;2023-02-20T11:58:39;3.17;;;1.33;;
9166;SDS011;4618;48.818;9.088;2023-02-20T12:01:06;3.23;;;1.37;;
9166;SDS011;4618;48.818;9.088;2023-02-20T12:03:55;5.27;;;1.20;;
9166;SDS011;4618;48.818;9.088;2023-02-20T12:06:34;2.53;;;1.03;;
9166;SDS011;4618;48.818;9.088;2023-02-20T12:09:05;2.37;;;1.00;;
9166;SDS011;4618;48.818;9.088;2023-02-20T12:11:39;2.27;;;0.90;;
9166;SDS011;4618;48.818;9.088;2023-02-20T12:14:08;4.10;;;0.70;;
9166;SDS011;4618;48.818;9.088;2023-02-20T12:16:53;3.17;;;1.00;;
9166;SDS011;4618;48.818;9.088;2023-02-20T12:19:53;2.13;;;1.00;;
9166;SDS011;4618;48.818;9.088;2023-02-20T12:22:41;1.70;;;1.00;;
9166;SDS011;4618;48.818;9.088;2023-02-20T12:25:43;1.60;;;0.90;;
9166;SDS011;4618;48.818;9.088;2023-02-20T12:28:20;3.28;;;0.90;;
9166;SDS011;4618;48.818;9.088;2023-02-20T12:39:01;2.60;;;0.85;;
9166;SDS011;4618;48.818;9.088;2023-02-20T12:41:32;2.05;;;0.82;;
9166;SDS011;4618;48.818;9.088;2023-02-20T12:49:21;3.42;;;0.90;;
9166;SDS011;4618;48.818;9.088;2023-02-20T13:00:29;1.10;;;0.60;;
9166;SDS011;4618;48.818;9.088;2023-02-20T13:03:06;3.58;;;0.60;;
9166;SDS011;4618;48.818;9.088;2023-02-20T13:05:32;2.33;;;0.70;;
9166;SDS011;4618;48.818;9.088;2023-02-20T13:08:06;1.50;;;0.70;;
9166;SDS011;4618;48.818;9.088;2023-02-20T13:11:01;1.20;;;0.30;;
9166;SDS011;4618;48.818;9.088;2023-02-20T13:13:31;2.47;;;0.50;;
9166;SDS011;4618;48.818;9.088;2023-02-20T13:16:30;1.73;;;0.50;;
9166;SDS011;4618;48.818;9.088;2023-02-20T13:19:26;1.38;;;0.47;;
9166;SDS011;4618;48.818;9.088;2023-02-20T13:22:01;0.45;;;0.30;;
9166;SDS011;4618;48.818;9.088;2023-02-20T13:24:35;1.88;;;0.40;;
9166;SDS011;4618;48.818;9.088;2023-02-20T13:27:05;1.38;;;0.55;;
9166;SDS011;4618;48.818;9.088;2023-02-20T13:29:34;2.25;;;0.30;;
9166;SDS011;4618;48.818;9.088;2023-02-20T13:32:26;1.67;;;0.30;;
9166;SDS011;4618;48.818;9.088;2023-02-20T13:34:54;1.65;;;0.43;;
9166;SDS011;4618;48.818;9.088;2023-02-20T13:38:08;3.22;;;0.35;;
9166;SDS011;4618;48.818;9.088;2023-02-20T13:40:34;1.20;;;0.20;;
9166;SDS011;4618;48.818;9.088;2023-02-20T13:45:40;0.20;;;0.20;;
9166;SDS011;4618;48.818;9.088;2023-02-20T13:50:43;1.55;;;0.30;;
9166;SDS011;4618;48.818;9.088;2023-02-20T13:53:09;0.85;;;0.35;;
9166;SDS011;4618;48.818;9.088;2023-02-20T13:55:35;0.63;;;0.30;;
9166;SDS011;4618;48.818;9.088;2023-02-20T14:03:10;1.10;;;0.20;;
9166;SDS011;4618;48.818;9.088;2023-02-20T14:05:43;1.90;;;0.30;;
9166;SDS011;4618;48.818;9.088;2023-02-20T14:08:16;1.13;;;0.57;;
9166;SDS011;4618;48.818;9.088;2023-02-20T14:10:43;2.93;;;1.00;;
9166;SDS011;4618;48.818;9.088;2023-02-20T14:13:18;6.10;;;2.40;;
9166;SDS011;4618;48.818;9.088;2023-02-20T14:15:56;2.10;;;0.90;;
9166;SDS011;4618;48.818;9.088;2023-02-20T14:18:24;5.50;;;3.20;;
9166;SDS011;4618;48.818;9.088;2023-02-20T14:23:29;1.90;;;0.57;;
9166;SDS011;4618;48.818;9.088;2023-02-20T14:25:58;0.90;;;0.57;;
9166;SDS011;4618;48.818;9.088;2023-02-20T14:28:26;1.40;;;0.40;;
9166;SDS011;4618;48.818;9.088;2023-02-20T14:31:03;2.47;;;0.40;;
9166;SDS011;4618;48.818;9.088;2023-02-20T14:33:31;1.13;;;0.43;;
9166;SDS011;4618;48.818;9.088;2023-02-20T14:41:18;2.07;;;0.50;;
9166;SDS011;4618;48.818;9.088;2023-02-20T14:43:53;0.80;;;0.40;;
9166;SDS011;4618;48.818;9.088;2023-02-20T14:46:30;1.87;;;0.67;;
9166;SDS011;4618;48.818;9.088;2023-02-20T14:49:08;6.67;;;0.63;;
9166;SDS011;4618;48.818;9.088;2023-02-20T14:51:39;1.73;;;0.60;;
9166;SDS011;4618;48.818;9.088;2023-02-20T14:54:19;3.83;;;0.97;;
9166;SDS011;4618;48.818;9.088;2023-02-20T14:56:50;2.67;;;0.60;;
9166;SDS011;4618;48.818;9.088;2023-02-20T14:59:23;4.33;;;0.50;;
9166;SDS011;4618;48.818;9.088;2023-02-20T15:02:16;2.93;;;0.60;;
9166;SDS011;4618;48.818;9.088;2023-02-20T15:04:52;2.67;;;0.93;;
9166;SDS011;4618;48.818;9.088;2023-02-20T15:07:21;2.90;;;1.83;;
9166;SDS011;4618;48.818;9.088;2023-02-20T15:09:49;3.80;;;2.50;;
9166;SDS011;4618;48.818;9.088;2023-02-20T15:15:09;2.53;;;1.73;;
9166;SDS011;4618;48.818;9.088;2023-02-20T15:17:40;3.90;;;1.23;;
9166;SDS011;4618;48.818;9.088;2023-02-20T15:22:44;2.13;;;0.50;;
9166;SDS011;4618;48.818;9.088;2023-02-20T15:31:01;1.17;;;0.80;;
9166;SDS011;4618;48.818;9.088;2023-02-20T15:33:36;3.23;;;0.90;;
9166;SDS011;4618;48.818;9.088;2023-02-20T15:36:05;2.57;;;1.77;;
9166;SDS011;4618;48.818;9.088;2023-02-20T15:38:38;2.87;;;1.67;;
9166;SDS011;4618;48.818;9.088;2023-02-20T15:41:05;3.13;;;0.60;;
9166;SDS011;4618;48.818;9.088;2023-02-20T15:43:31;1.70;;;0.50;;
9166;SDS011;4618;48.818;9.088;2023-02-20T15:45:57;1.13;;;0.40;;
9166;SDS011;4618;48.818;9.088;2023-02-20T15:48:23;0.80;;;0.50;;
9166;SDS011;4618;48.818;9.088;2023-02-20T15:50:49;0.90;;;0.50;;
9166;SDS011;4618;48.818;9.088;2023-02-20T15:53:25;1.40;;;0.60;;
9166;SDS011;4618;48.818;9.088;2023-02-20T15:55:54;1.60;;;0.67;;
9166;SDS011;4618;48.818;9.088;2023-02-20T15:58:31;2.67;;;0.50;;
9166;SDS011;4618;48.818;9.088;2023-02-20T16:01:00;2.83;;;0.50;;
9166;SDS011;4618;48.818;9.088;2023-02-20T16:03:26;2.80;;;0.83;;
9166;SDS011;4618;48.818;9.088;2023-02-20T16:05:53;2.30;;;0.50;;
9166;SDS011;4618;48.818;9.088;2023-02-20T16:08:19;4.07;;;0.70;;
9166;SDS011;4618;48.818;9.088;2023-02-20T16:10:46;2.00;;;0.60;;
9166;SDS011;4618;48.818;9.088;2023-02-20T16:13:20;3.10;;;0.60;;
9166;SDS011;4618;48.818;9.088;2023-02-20T16:15:59;1.07;;;0.50;;
9166;SDS011;4618;48.818;9.088;2023-02-20T16:18:46;3.73;;;0.67;;
9166;SDS011;4618;48.818;9.088;2023-02-20T16:21:13;2.87;;;0.60;;
9166;SDS011;4618;48.818;9.088;2023-02-20T16:23:40;3.00;;;0.67;;
9166;SDS011;4618;48.818;9.088;2023-02-20T16:26:09;5.40;;;1.33;;
9166;SDS011;4618;48.818;9.088;2023-02-20T16:28:35;1.60;;;0.50;;
9166;SDS011;4618;48.818;9.088;2023-02-20T16:31:00;1.23;;;0.60;;
9166;SDS011;4618;48.818;9.088;2023-02-20T16:33:26;1.83;;;0.47;;
9166;SDS011;4618;48.818;9.088;2023-02-20T16:35:51;2.53;;;0.87;;
9166;SDS011;4618;48.818;9.088;2023-02-20T16:38:17;1.43;;;1.00;;
9166;SDS011;4618;48.818;9.088;2023-02-20T16:40:44;1.10;;;0.87;;
9166;SDS011;4618;48.818;9.088;2023-02-20T16:43:11;2.40;;;1.10;;
9166;SDS011;4618;48.818;9.088;2023-02-20T16:45:38;1.97;;;0.83;;
9166;SDS011;4618;48.818;9.088;2023-02-20T16:48:08;1.80;;;0.70;;
9166;SDS011;4618;48.818;9.088;2023-02-20T16:50:38;0.90;;;0.67;;
9166;SDS011;4618;48.818;9.088;2023-02-20T16:53:04;1.90;;;0.80;;
9166;SDS011;4618;48.818;9.088;2023-02-20T16:55:34;1.37;;;0.70;;
9166;SDS011;4618;48.818;9.088;2023-02-20T16:58:01;2.63;;;1.10;;
9166;SDS011;4618;48.818;9.088;2023-02-20T17:00:29;3.53;;;1.10;;
9166;SDS011;4618;48.818;9.088;2023-02-20T17:02:57;1.90;;;1.07;;
9166;SDS011;4618;48.818;9.088;2023-02-20T17:05:25;3.60;;;0.90;;
9166;SDS011;4618;48.818;9.088;2023-02-20T17:07:53;0.60;;;0.60;;
9166;SDS011;4618;48.818;9.088;2023-02-20T17:10:20;1.47;;;0.80;;
9166;SDS011;4618;48.818;9.088;2023-02-20T17:12:46;3.70;;;0.97;;
9166;SDS011;4618;48.818;9.088;2023-02-20T17:15:13;1.47;;;0.97;;
9166;SDS011;4618;48.818;9.088;2023-02-20T17:17:41;1.70;;;0.90;;
9166;SDS011;4618;48.818;9.088;2023-02-20T17:20:12;1.03;;;0.83;;